sensor_id;sensor_type;location;lat;lon;timestamp;temperature;humidity
29777;DHT22;16677;52.224;7.484;2023-06-14T00:01:49;18.70;69.80
29777;DHT22;16677;52.224;7.484;2023-06-14T00:04:16;18.60;71.40
29777;DHT22;16677;52.224;7.484;2023-06-14T00:06:44;18.50;73.00
29777;DHT22;16677;52.224;7.484;2023-06-14T00:09:17;18.50;73.80
29777;DHT22;16677;52.224;7.484;2023-06-14T00:11:45;18.50;73.80
29777;DHT22;16677;52.224;7.484;2023-06-14T00:14:12;18.50;75.10
29777;DHT22;16677;52.224;7.484;2023-06-14T00:16:40;18.40;75.70
29777;DHT22;16677;52.224;7.484;2023-06-14T00:19:09;18.40;77.10
29777;DHT22;16677;52.224;7.484;2023-06-14T00:21:37;18.40;78.00
29777;DHT22;16677;52.224;7.484;2023-06-14T00:24:04;18.40;78.00
29777;DHT22;16677;52.224;7.484;2023-06-14T00:26:32;18.30;79.30
29777;DHT22;16677;52.224;7.484;2023-06-14T00:28:59;18.30;80.60
29777;DHT22;16677;52.224;7.484;2023-06-14T00:31:27;18.30;81.20
29777;DHT22;16677;52.224;7.484;2023-06-14T00:33:54;18.30;85.60
29777;DHT22;16677;52.224;7.484;2023-06-14T00:36:21;18.20;83.70
29777;DHT22;16677;52.224;7.484;2023-06-14T00:38:48;18.10;86.40
29777;DHT22;16677;52.224;7.484;2023-06-14T00:41:16;18.00;87.60
29777;DHT22;16677;52.224;7.484;2023-06-14T00:43:43;18.00;86.30
29777;DHT22;16677;52.224;7.484;2023-06-14T00:46:10;17.90;89.40
29777;DHT22;16677;52.224;7.484;2023-06-14T00:48:39;17.90;89.20
29777;DHT22;16677;52.224;7.484;2023-06-14T00:51:06;17.90;90.50
29777;DHT22;16677;52.224;7.484;2023-06-14T00:53:34;17.90;90.70
29777;DHT22;16677;52.224;7.484;2023-06-14T00:56:02;17.90;91.40
29777;DHT22;16677;52.224;7.484;2023-06-14T00:58:30;17.80;91.70
29777;DHT22;16677;52.224;7.484;2023-06-14T01:00:58;17.70;93.00
29777;DHT22;16677;52.224;7.484;2023-06-14T01:03:25;17.70;93.90
29777;DHT22;16677;52.224;7.484;2023-06-14T01:05:59;17.70;94.30
29777;DHT22;16677;52.224;7.484;2023-06-14T01:09:01;17.70;94.60
29777;DHT22;16677;52.224;7.484;2023-06-14T01:11:44;17.70;96.30
29777;DHT22;16677;52.224;7.484;2023-06-14T01:14:17;17.50;98.40
29777;DHT22;16677;52.224;7.484;2023-06-14T01:16:45;17.50;98.50
29777;DHT22;16677;52.224;7.484;2023-06-14T01:19:14;17.40;99.30
29777;DHT22;16677;52.224;7.484;2023-06-14T01:21:42;17.40;99.90
29777;DHT22;16677;52.224;7.484;2023-06-14T01:24:10;17.10;99.90
29777;DHT22;16677;52.224;7.484;2023-06-14T01:26:38;17.30;99.90
29777;DHT22;16677;52.224;7.484;2023-06-14T01:29:14;17.30;99.90
29777;DHT22;16677;52.224;7.484;2023-06-14T01:31:47;17.40;99.90
29777;DHT22;16677;52.224;7.484;2023-06-14T01:34:14;17.30;99.90
29777;DHT22;16677;52.224;7.484;2023-06-14T01:36:43;17.30;99.90
29777;DHT22;16677;52.224;7.484;2023-06-14T01:39:15;17.30;99.90
29777;DHT22;16677;52.224;7.484;2023-06-14T01:41:43;17.20;99.90
29777;DHT22;16677;52.224;7.484;2023-06-14T01:44:14;17.10;99.90
29777;DHT22;16677;52.224;7.484;2023-06-14T01:46:42;17.10;99.90
29777;DHT22;16677;52.224;7.484;2023-06-14T01:49:11;17.10;99.90
29777;DHT22;16677;52.224;7.484;2023-06-14T01:51:38;17.00;99.90
29777;DHT22;16677;52.224;7.484;2023-06-14T01:54:06;16.90;99.90
29777;DHT22;16677;52.224;7.484;2023-06-14T01:56:33;16.90;99.90
29777;DHT22;16677;52.224;7.484;2023-06-14T01:59:02;16.80;99.90
29777;DHT22;16677;52.224;7.484;2023-06-14T02:01:29;16.90;99.90
29777;DHT22;16677;52.224;7.484;2023-06-14T02:03:57;16.80;99.90
29777;DHT22;16677;52.224;7.484;2023-06-14T02:06:26;16.70;99.90
29777;DHT22;16677;52.224;7.484;2023-06-14T02:08:53;16.70;99.90
29777;DHT22;16677;52.224;7.484;2023-06-14T02:11:20;16.70;99.90
29777;DHT22;16677;52.224;7.484;2023-06-14T02:13:47;16.60;99.90
29777;DHT22;16677;52.224;7.484;2023-06-14T02:16:14;16.60;99.90
29777;DHT22;16677;52.224;7.484;2023-06-14T02:18:44;16.60;99.90
29777;DHT22;16677;52.224;7.484;2023-06-14T02:21:11;16.50;99.90
29777;DHT22;16677;52.224;7.484;2023-06-14T02:23:38;16.50;99.90
29777;DHT22;16677;52.224;7.484;2023-06-14T02:26:05;16.40;99.90
29777;DHT22;16677;52.224;7.484;2023-06-14T02:28:32;16.30;99.90
29777;DHT22;16677;52.224;7.484;2023-06-14T02:30:59;16.30;99.90
29777;DHT22;16677;52.224;7.484;2023-06-14T02:33:27;16.30;99.90
29777;DHT22;16677;52.224;7.484;2023-06-14T02:35:54;16.30;99.90
29777;DHT22;16677;52.224;7.484;2023-06-14T02:38:23;16.30;99.90
29777;DHT22;16677;52.224;7.484;2023-06-14T02:40:50;16.40;99.90
29777;DHT22;16677;52.224;7.484;2023-06-14T02:43:18;16.40;99.90
29777;DHT22;16677;52.224;7.484;2023-06-14T02:45:45;16.40;99.90
29777;DHT22;16677;52.224;7.484;2023-06-14T02:48:12;16.40;99.90
29777;DHT22;16677;52.224;7.484;2023-06-14T02:50:39;16.40;99.90
29777;DHT22;16677;52.224;7.484;2023-06-14T02:53:06;16.40;99.90
29777;DHT22;16677;52.224;7.484;2023-06-14T02:55:34;16.40;99.90
29777;DHT22;16677;52.224;7.484;2023-06-14T02:58:07;16.40;99.90
29777;DHT22;16677;52.224;7.484;2023-06-14T03:00:34;16.30;99.90
29777;DHT22;16677;52.224;7.484;2023-06-14T03:03:03;16.30;99.90
29777;DHT22;16677;52.224;7.484;2023-06-14T03:05:31;16.20;99.90
29777;DHT22;16677;52.224;7.484;2023-06-14T03:07:59;16.30;99.90
29777;DHT22;16677;52.224;7.484;2023-06-14T03:10:29;16.20;99.90
29777;DHT22;16677;52.224;7.484;2023-06-14T03:12:57;16.20;99.90
29777;DHT22;16677;52.224;7.484;2023-06-14T03:15:24;16.20;99.90
29777;DHT22;16677;52.224;7.484;2023-06-14T03:17:51;16.40;99.90
29777;DHT22;16677;52.224;7.484;2023-06-14T03:20:20;16.10;99.90
29777;DHT22;16677;52.224;7.484;2023-06-14T03:22:47;16.10;99.90
29777;DHT22;16677;52.224;7.484;2023-06-14T03:25:15;16.10;99.90
29777;DHT22;16677;52.224;7.484;2023-06-14T03:27:42;16.00;99.90
29777;DHT22;16677;52.224;7.484;2023-06-14T03:30:09;16.00;99.90
29777;DHT22;16677;52.224;7.484;2023-06-14T03:32:40;16.00;99.90
29777;DHT22;16677;52.224;7.484;2023-06-14T03:35:07;16.00;99.90
29777;DHT22;16677;52.224;7.484;2023-06-14T03:37:35;16.00;99.90
29777;DHT22;16677;52.224;7.484;2023-06-14T03:40:04;16.00;99.90
29777;DHT22;16677;52.224;7.484;2023-06-14T03:42:33;16.30;99.90
29777;DHT22;16677;52.224;7.484;2023-06-14T03:45:00;16.90;99.90
29777;DHT22;16677;52.224;7.484;2023-06-14T03:47:27;17.40;99.90
29777;DHT22;16677;52.224;7.484;2023-06-14T03:49:54;17.80;99.90
29777;DHT22;16677;52.224;7.484;2023-06-14T03:52:22;18.10;99.90
29777;DHT22;16677;52.224;7.484;2023-06-14T03:54:50;18.30;99.90
29777;DHT22;16677;52.224;7.484;2023-06-14T03:57:23;18.40;99.90
29777;DHT22;16677;52.224;7.484;2023-06-14T03:59:50;18.60;99.90
29777;DHT22;16677;52.224;7.484;2023-06-14T04:02:17;19.00;99.90
29777;DHT22;16677;52.224;7.484;2023-06-14T04:04:46;19.20;99.90
29777;DHT22;16677;52.224;7.484;2023-06-14T04:07:15;19.30;99.90
29777;DHT22;16677;52.224;7.484;2023-06-14T04:09:46;19.40;99.90
29777;DHT22;16677;52.224;7.484;2023-06-14T04:12:13;19.30;99.90
29777;DHT22;16677;52.224;7.484;2023-06-14T04:14:41;19.30;99.90
29777;DHT22;16677;52.224;7.484;2023-06-14T04:17:08;19.70;99.90
29777;DHT22;16677;52.224;7.484;2023-06-14T04:19:35;20.00;99.90
29777;DHT22;16677;52.224;7.484;2023-06-14T04:22:03;19.80;99.90
29777;DHT22;16677;52.224;7.484;2023-06-14T04:24:30;19.70;99.90
29777;DHT22;16677;52.224;7.484;2023-06-14T04:26:59;19.90;99.90
29777;DHT22;16677;52.224;7.484;2023-06-14T04:29:27;20.20;99.90
29777;DHT22;16677;52.224;7.484;2023-06-14T04:31:56;20.10;99.90
29777;DHT22;16677;52.224;7.484;2023-06-14T04:34:27;20.30;99.90
29777;DHT22;16677;52.224;7.484;2023-06-14T04:37:01;19.90;99.90
29777;DHT22;16677;52.224;7.484;2023-06-14T04:39:28;19.80;99.90
29777;DHT22;16677;52.224;7.484;2023-06-14T04:41:56;19.70;99.90
29777;DHT22;16677;52.224;7.484;2023-06-14T04:44:24;19.80;99.90
29777;DHT22;16677;52.224;7.484;2023-06-14T04:46:57;20.00;99.90
29777;DHT22;16677;52.224;7.484;2023-06-14T04:49:25;20.50;99.90
29777;DHT22;16677;52.224;7.484;2023-06-14T04:51:56;20.60;99.90
29777;DHT22;16677;52.224;7.484;2023-06-14T04:54:26;20.70;99.90
29777;DHT22;16677;52.224;7.484;2023-06-14T04:56:53;21.00;99.90
29777;DHT22;16677;52.224;7.484;2023-06-14T04:59:21;20.60;99.90
29777;DHT22;16677;52.224;7.484;2023-06-14T05:01:51;20.30;99.90
29777;DHT22;16677;52.224;7.484;2023-06-14T05:04:19;20.90;99.90
29777;DHT22;16677;52.224;7.484;2023-06-14T05:06:48;21.00;99.90
29777;DHT22;16677;52.224;7.484;2023-06-14T05:09:15;20.50;99.90
29777;DHT22;16677;52.224;7.484;2023-06-14T05:11:43;20.90;99.90
29777;DHT22;16677;52.224;7.484;2023-06-14T05:14:11;20.60;99.90
29777;DHT22;16677;52.224;7.484;2023-06-14T05:16:38;20.40;99.90
29777;DHT22;16677;52.224;7.484;2023-06-14T05:19:06;20.30;99.90
29777;DHT22;16677;52.224;7.484;2023-06-14T05:21:34;20.60;99.90
29777;DHT22;16677;52.224;7.484;2023-06-14T05:24:06;20.90;99.90
29777;DHT22;16677;52.224;7.484;2023-06-14T05:26:35;21.40;99.90
29777;DHT22;16677;52.224;7.484;2023-06-14T05:29:06;21.40;99.90
29777;DHT22;16677;52.224;7.484;2023-06-14T05:31:33;21.60;99.50
29777;DHT22;16677;52.224;7.484;2023-06-14T05:34:00;21.50;99.90
29777;DHT22;16677;52.224;7.484;2023-06-14T05:36:28;21.80;98.50
29777;DHT22;16677;52.224;7.484;2023-06-14T05:38:55;21.90;97.90
29777;DHT22;16677;52.224;7.484;2023-06-14T05:41:27;21.10;98.40
29777;DHT22;16677;52.224;7.484;2023-06-14T05:43:55;20.70;99.90
29777;DHT22;16677;52.224;7.484;2023-06-14T05:46:23;21.20;99.90
29777;DHT22;16677;52.224;7.484;2023-06-14T05:48:53;21.50;99.40
29777;DHT22;16677;52.224;7.484;2023-06-14T05:51:21;21.20;98.90
29777;DHT22;16677;52.224;7.484;2023-06-14T05:53:48;21.00;99.00
29777;DHT22;16677;52.224;7.484;2023-06-14T05:56:16;21.20;99.70
29777;DHT22;16677;52.224;7.484;2023-06-14T05:58:46;21.10;99.90
29777;DHT22;16677;52.224;7.484;2023-06-14T06:01:14;21.20;99.90
29777;DHT22;16677;52.224;7.484;2023-06-14T06:03:42;21.30;98.70
29777;DHT22;16677;52.224;7.484;2023-06-14T06:06:13;20.80;99.90
29777;DHT22;16677;52.224;7.484;2023-06-14T06:08:40;21.30;99.90
29777;DHT22;16677;52.224;7.484;2023-06-14T06:11:07;21.40;99.00
29777;DHT22;16677;52.224;7.484;2023-06-14T06:13:35;21.70;99.90
29777;DHT22;16677;52.224;7.484;2023-06-14T06:16:02;22.20;98.40
29777;DHT22;16677;52.224;7.484;2023-06-14T06:18:30;22.20;96.90
29777;DHT22;16677;52.224;7.484;2023-06-14T06:20:57;21.80;96.80
29777;DHT22;16677;52.224;7.484;2023-06-14T06:23:24;21.90;97.70
29777;DHT22;16677;52.224;7.484;2023-06-14T06:25:52;22.50;97.50
29777;DHT22;16677;52.224;7.484;2023-06-14T06:28:20;21.90;96.10
29777;DHT22;16677;52.224;7.484;2023-06-14T06:30:47;21.70;96.20
29777;DHT22;16677;52.224;7.484;2023-06-14T06:33:14;21.70;96.70
29777;DHT22;16677;52.224;7.484;2023-06-14T06:35:41;21.90;97.40
29777;DHT22;16677;52.224;7.484;2023-06-14T06:38:09;22.00;96.10
29777;DHT22;16677;52.224;7.484;2023-06-14T06:40:37;22.50;96.20
29777;DHT22;16677;52.224;7.484;2023-06-14T06:43:04;22.50;95.40
29777;DHT22;16677;52.224;7.484;2023-06-14T06:45:31;22.60;94.80
29777;DHT22;16677;52.224;7.484;2023-06-14T06:47:58;22.40;94.90
29777;DHT22;16677;52.224;7.484;2023-06-14T06:50:25;22.10;95.60
29777;DHT22;16677;52.224;7.484;2023-06-14T06:52:52;22.40;96.30
29777;DHT22;16677;52.224;7.484;2023-06-14T06:55:20;22.80;95.60
29777;DHT22;16677;52.224;7.484;2023-06-14T06:57:47;22.70;94.80
29777;DHT22;16677;52.224;7.484;2023-06-14T07:00:17;22.20;95.30
29777;DHT22;16677;52.224;7.484;2023-06-14T07:02:45;22.10;95.40
29777;DHT22;16677;52.224;7.484;2023-06-14T07:05:12;22.90;95.60
29777;DHT22;16677;52.224;7.484;2023-06-14T07:07:40;22.90;93.50
29777;DHT22;16677;52.224;7.484;2023-06-14T07:10:07;23.20;92.80
29777;DHT22;16677;52.224;7.484;2023-06-14T07:12:35;23.00;92.60
29777;DHT22;16677;52.224;7.484;2023-06-14T07:15:07;22.80;91.50
29777;DHT22;16677;52.224;7.484;2023-06-14T07:17:35;22.60;91.90
29777;DHT22;16677;52.224;7.484;2023-06-14T07:20:04;22.70;91.40
29777;DHT22;16677;52.224;7.484;2023-06-14T07:22:41;22.50;91.30
29777;DHT22;16677;52.224;7.484;2023-06-14T07:25:10;22.60;92.60
29777;DHT22;16677;52.224;7.484;2023-06-14T07:27:43;22.50;91.60
29777;DHT22;16677;52.224;7.484;2023-06-14T07:30:12;22.00;91.40
29777;DHT22;16677;52.224;7.484;2023-06-14T07:32:39;22.00;92.80
29777;DHT22;16677;52.224;7.484;2023-06-14T07:35:07;22.10;91.00
29777;DHT22;16677;52.224;7.484;2023-06-14T07:37:34;22.30;92.10
29777;DHT22;16677;52.224;7.484;2023-06-14T07:40:03;22.20;91.10
29777;DHT22;16677;52.224;7.484;2023-06-14T07:42:34;22.50;91.60
29777;DHT22;16677;52.224;7.484;2023-06-14T07:47:30;23.10;90.50
29777;DHT22;16677;52.224;7.484;2023-06-14T07:49:58;22.90;90.40
29777;DHT22;16677;52.224;7.484;2023-06-14T07:52:25;22.90;90.60
29777;DHT22;16677;52.224;7.484;2023-06-14T07:54:52;22.50;90.80
29777;DHT22;16677;52.224;7.484;2023-06-14T07:57:19;22.10;90.90
29777;DHT22;16677;52.224;7.484;2023-06-14T07:59:47;22.10;90.90
29777;DHT22;16677;52.224;7.484;2023-06-14T08:02:14;22.00;90.90
29777;DHT22;16677;52.224;7.484;2023-06-14T08:04:41;22.10;91.20
29777;DHT22;16677;52.224;7.484;2023-06-14T08:07:09;22.30;91.60
29777;DHT22;16677;52.224;7.484;2023-06-14T08:09:36;22.70;92.20
29777;DHT22;16677;52.224;7.484;2023-06-14T08:12:07;22.90;91.60
29777;DHT22;16677;52.224;7.484;2023-06-14T08:14:36;22.70;90.30
29777;DHT22;16677;52.224;7.484;2023-06-14T08:17:03;22.00;90.90
29777;DHT22;16677;52.224;7.484;2023-06-14T08:19:31;21.90;91.20
29777;DHT22;16677;52.224;7.484;2023-06-14T08:21:58;22.00;91.10
29777;DHT22;16677;52.224;7.484;2023-06-14T08:24:26;22.10;90.50
29777;DHT22;16677;52.224;7.484;2023-06-14T08:26:54;21.80;90.10
29777;DHT22;16677;52.224;7.484;2023-06-14T08:29:21;22.00;90.50
29777;DHT22;16677;52.224;7.484;2023-06-14T08:31:48;22.00;91.00
29777;DHT22;16677;52.224;7.484;2023-06-14T08:34:16;22.30;89.30
29777;DHT22;16677;52.224;7.484;2023-06-14T08:36:43;22.00;89.20
29777;DHT22;16677;52.224;7.484;2023-06-14T08:39:10;21.70;89.50
29777;DHT22;16677;52.224;7.484;2023-06-14T08:41:38;21.30;89.60
29777;DHT22;16677;52.224;7.484;2023-06-14T08:44:05;21.00;90.60
29777;DHT22;16677;52.224;7.484;2023-06-14T08:46:34;21.50;99.90
29777;DHT22;16677;52.224;7.484;2023-06-14T08:49:02;21.20;91.60
29777;DHT22;16677;52.224;7.484;2023-06-14T08:51:32;21.20;92.00
29777;DHT22;16677;52.224;7.484;2023-06-14T08:54:04;21.40;92.50
29777;DHT22;16677;52.224;7.484;2023-06-14T08:56:32;21.30;92.00
29777;DHT22;16677;52.224;7.484;2023-06-14T08:59:00;21.30;90.80
29777;DHT22;16677;52.224;7.484;2023-06-14T09:01:37;21.60;90.80
29777;DHT22;16677;52.224;7.484;2023-06-14T09:04:05;21.80;91.00
29777;DHT22;16677;52.224;7.484;2023-06-14T09:06:32;21.80;90.10
29777;DHT22;16677;52.224;7.484;2023-06-14T09:08:59;21.60;99.90
29777;DHT22;16677;52.224;7.484;2023-06-14T09:11:27;21.70;90.00
29777;DHT22;16677;52.224;7.484;2023-06-14T09:13:54;22.10;90.10
29777;DHT22;16677;52.224;7.484;2023-06-14T09:16:22;22.00;89.00
29777;DHT22;16677;52.224;7.484;2023-06-14T09:18:49;21.90;88.60
29777;DHT22;16677;52.224;7.484;2023-06-14T09:21:17;21.60;89.80
29777;DHT22;16677;52.224;7.484;2023-06-14T09:23:47;22.10;90.60
29777;DHT22;16677;52.224;7.484;2023-06-14T09:26:17;21.70;90.20
29777;DHT22;16677;52.224;7.484;2023-06-14T09:28:50;22.00;91.60
29777;DHT22;16677;52.224;7.484;2023-06-14T09:31:18;21.80;90.30
29777;DHT22;16677;52.224;7.484;2023-06-14T09:33:50;22.20;90.90
29777;DHT22;16677;52.224;7.484;2023-06-14T09:36:22;22.50;91.40
29777;DHT22;16677;52.224;7.484;2023-06-14T09:38:54;22.20;90.60
29777;DHT22;16677;52.224;7.484;2023-06-14T09:44:05;22.10;91.60
29777;DHT22;16677;52.224;7.484;2023-06-14T09:46:40;21.70;92.00
29777;DHT22;16677;52.224;7.484;2023-06-14T09:49:07;21.70;91.60
29777;DHT22;16677;52.224;7.484;2023-06-14T09:51:44;22.20;92.20
29777;DHT22;16677;52.224;7.484;2023-06-14T09:54:22;22.10;91.40
29777;DHT22;16677;52.224;7.484;2023-06-14T09:56:52;22.30;92.20
29777;DHT22;16677;52.224;7.484;2023-06-14T09:59:22;22.10;91.70
29777;DHT22;16677;52.224;7.484;2023-06-14T10:01:58;21.90;92.30
29777;DHT22;16677;52.224;7.484;2023-06-14T10:04:27;22.00;92.40
29777;DHT22;16677;52.224;7.484;2023-06-14T10:06:58;21.90;93.00
29777;DHT22;16677;52.224;7.484;2023-06-14T10:09:26;22.00;92.40
29777;DHT22;16677;52.224;7.484;2023-06-14T10:11:56;22.50;92.30
29777;DHT22;16677;52.224;7.484;2023-06-14T10:14:23;22.40;92.10
29777;DHT22;16677;52.224;7.484;2023-06-14T10:17:12;22.20;92.90
29777;DHT22;16677;52.224;7.484;2023-06-14T10:19:56;22.00;92.50
29777;DHT22;16677;52.224;7.484;2023-06-14T10:22:42;22.20;92.40
29777;DHT22;16677;52.224;7.484;2023-06-14T10:25:27;22.20;92.60
29777;DHT22;16677;52.224;7.484;2023-06-14T10:28:20;22.30;92.80
29777;DHT22;16677;52.224;7.484;2023-06-14T10:33:32;22.10;92.40
29777;DHT22;16677;52.224;7.484;2023-06-14T10:36:25;22.20;93.40
29777;DHT22;16677;52.224;7.484;2023-06-14T10:38:59;22.30;92.90
29777;DHT22;16677;52.224;7.484;2023-06-14T10:41:38;22.30;93.00
29777;DHT22;16677;52.224;7.484;2023-06-14T10:46:55;22.20;93.60
29777;DHT22;16677;52.224;7.484;2023-06-14T10:49:45;22.20;93.30
29777;DHT22;16677;52.224;7.484;2023-06-14T10:52:24;22.10;93.20
29777;DHT22;16677;52.224;7.484;2023-06-14T10:57:52;22.50;93.10
29777;DHT22;16677;52.224;7.484;2023-06-14T11:00:27;22.50;93.40
29777;DHT22;16677;52.224;7.484;2023-06-14T11:10:59;22.70;92.60
29777;DHT22;16677;52.224;7.484;2023-06-14T11:13:27;22.90;92.30
29777;DHT22;16677;52.224;7.484;2023-06-14T11:15:57;23.00;92.90
29777;DHT22;16677;52.224;7.484;2023-06-14T11:18:28;22.90;91.80
29777;DHT22;16677;52.224;7.484;2023-06-14T11:20:55;22.60;92.30
29777;DHT22;16677;52.224;7.484;2023-06-14T11:23:22;22.60;92.30
29777;DHT22;16677;52.224;7.484;2023-06-14T11:25:51;23.00;92.50
29777;DHT22;16677;52.224;7.484;2023-06-14T11:28:23;23.20;92.50
29777;DHT22;16677;52.224;7.484;2023-06-14T11:31:03;23.40;92.50
29777;DHT22;16677;52.224;7.484;2023-06-14T11:33:30;23.40;91.80
29777;DHT22;16677;52.224;7.484;2023-06-14T11:35:57;23.40;92.10
29777;DHT22;16677;52.224;7.484;2023-06-14T11:38:27;23.20;90.20
29777;DHT22;16677;52.224;7.484;2023-06-14T11:40:59;23.00;92.70
29777;DHT22;16677;52.224;7.484;2023-06-14T11:43:27;23.20;91.30
29777;DHT22;16677;52.224;7.484;2023-06-14T11:45:55;23.20;91.40
29777;DHT22;16677;52.224;7.484;2023-06-14T11:48:43;23.40;91.20
29777;DHT22;16677;52.224;7.484;2023-06-14T11:51:10;23.20;91.30
29777;DHT22;16677;52.224;7.484;2023-06-14T11:53:38;23.30;90.90
29777;DHT22;16677;52.224;7.484;2023-06-14T11:56:05;22.90;91.50
29777;DHT22;16677;52.224;7.484;2023-06-14T11:58:33;23.30;91.50
29777;DHT22;16677;52.224;7.484;2023-06-14T12:01:03;23.30;90.50
29777;DHT22;16677;52.224;7.484;2023-06-14T12:03:30;23.60;90.90
29777;DHT22;16677;52.224;7.484;2023-06-14T12:06:07;23.50;90.80
29777;DHT22;16677;52.224;7.484;2023-06-14T12:08:37;23.80;89.50
29777;DHT22;16677;52.224;7.484;2023-06-14T12:11:16;23.60;90.80
29777;DHT22;16677;52.224;7.484;2023-06-14T12:13:44;23.60;90.70
29777;DHT22;16677;52.224;7.484;2023-06-14T12:16:11;24.10;90.00
29777;DHT22;16677;52.224;7.484;2023-06-14T12:18:41;24.30;99.90
29777;DHT22;16677;52.224;7.484;2023-06-14T12:21:10;24.10;90.00
29777;DHT22;16677;52.224;7.484;2023-06-14T12:23:48;24.40;90.20
29777;DHT22;16677;52.224;7.484;2023-06-14T12:26:19;24.40;90.00
29777;DHT22;16677;52.224;7.484;2023-06-14T12:28:47;24.60;87.30
29777;DHT22;16677;52.224;7.484;2023-06-14T12:31:16;24.00;87.70
29777;DHT22;16677;52.224;7.484;2023-06-14T12:33:46;24.10;88.30
29777;DHT22;16677;52.224;7.484;2023-06-14T12:36:16;24.00;88.50
29777;DHT22;16677;52.224;7.484;2023-06-14T12:38:46;24.00;88.80
29777;DHT22;16677;52.224;7.484;2023-06-14T12:41:13;24.00;89.10
29777;DHT22;16677;52.224;7.484;2023-06-14T12:43:41;24.20;85.80
29777;DHT22;16677;52.224;7.484;2023-06-14T12:46:08;24.90;85.30
29777;DHT22;16677;52.224;7.484;2023-06-14T12:48:35;24.90;83.80
29777;DHT22;16677;52.224;7.484;2023-06-14T12:51:03;24.70;84.00
29777;DHT22;16677;52.224;7.484;2023-06-14T12:53:31;24.90;83.80
29777;DHT22;16677;52.224;7.484;2023-06-14T12:55:59;25.20;82.70
29777;DHT22;16677;52.224;7.484;2023-06-14T12:58:26;25.40;81.60
29777;DHT22;16677;52.224;7.484;2023-06-14T13:00:53;25.20;80.10
29777;DHT22;16677;52.224;7.484;2023-06-14T13:03:22;25.30;96.70
29777;DHT22;16677;52.224;7.484;2023-06-14T13:05:49;24.60;96.60
29777;DHT22;16677;52.224;7.484;2023-06-14T13:08:16;24.30;79.70
29777;DHT22;16677;52.224;7.484;2023-06-14T13:10:43;24.30;83.20
29777;DHT22;16677;52.224;7.484;2023-06-14T13:13:11;24.60;80.80
29777;DHT22;16677;52.224;7.484;2023-06-14T13:15:39;24.50;79.70
29777;DHT22;16677;52.224;7.484;2023-06-14T13:18:07;24.60;81.90
29777;DHT22;16677;52.224;7.484;2023-06-14T13:20:34;24.80;79.40
29777;DHT22;16677;52.224;7.484;2023-06-14T13:23:01;25.00;78.90
29777;DHT22;16677;52.224;7.484;2023-06-14T13:25:30;24.90;80.00
29777;DHT22;16677;52.224;7.484;2023-06-14T13:27:57;24.90;78.60
29777;DHT22;16677;52.224;7.484;2023-06-14T13:30:24;25.30;80.00
29777;DHT22;16677;52.224;7.484;2023-06-14T13:32:51;25.40;78.80
29777;DHT22;16677;52.224;7.484;2023-06-14T13:35:19;25.20;79.20
29777;DHT22;16677;52.224;7.484;2023-06-14T13:37:46;25.30;79.40
29777;DHT22;16677;52.224;7.484;2023-06-14T13:40:13;25.50;77.80
29777;DHT22;16677;52.224;7.484;2023-06-14T13:42:41;25.80;78.00
29777;DHT22;16677;52.224;7.484;2023-06-14T13:47:43;26.00;75.70
29777;DHT22;16677;52.224;7.484;2023-06-14T13:50:11;25.70;75.60
29777;DHT22;16677;52.224;7.484;2023-06-14T13:52:38;25.40;76.20
29777;DHT22;16677;52.224;7.484;2023-06-14T13:55:07;25.50;76.90
29777;DHT22;16677;52.224;7.484;2023-06-14T13:57:34;25.80;77.10
29777;DHT22;16677;52.224;7.484;2023-06-14T14:00:02;25.90;94.90
29777;DHT22;16677;52.224;7.484;2023-06-14T14:02:30;26.00;76.40
29777;DHT22;16677;52.224;7.484;2023-06-14T14:04:57;26.10;75.40
29777;DHT22;16677;52.224;7.484;2023-06-14T14:07:24;26.00;74.90
29777;DHT22;16677;52.224;7.484;2023-06-14T14:09:52;25.60;74.70
29777;DHT22;16677;52.224;7.484;2023-06-14T14:12:20;25.30;76.00
29777;DHT22;16677;52.224;7.484;2023-06-14T14:14:48;24.90;75.90
29777;DHT22;16677;52.224;7.484;2023-06-14T14:17:20;25.30;95.50
29777;DHT22;16677;52.224;7.484;2023-06-14T14:19:48;25.40;75.80
29777;DHT22;16677;52.224;7.484;2023-06-14T14:22:15;25.60;74.60
29777;DHT22;16677;52.224;7.484;2023-06-14T14:24:42;25.70;75.20
29777;DHT22;16677;52.224;7.484;2023-06-14T14:27:10;25.80;75.20
29777;DHT22;16677;52.224;7.484;2023-06-14T14:29:37;26.10;74.20
29777;DHT22;16677;52.224;7.484;2023-06-14T14:32:04;26.50;73.90
29777;DHT22;16677;52.224;7.484;2023-06-14T14:34:32;26.10;71.40
29777;DHT22;16677;52.224;7.484;2023-06-14T14:36:59;26.20;73.60
29777;DHT22;16677;52.224;7.484;2023-06-14T14:39:26;26.00;75.00
29777;DHT22;16677;52.224;7.484;2023-06-14T14:41:55;26.00;74.90
29777;DHT22;16677;52.224;7.484;2023-06-14T14:44:22;26.60;74.20
29777;DHT22;16677;52.224;7.484;2023-06-14T14:46:49;26.60;71.90
29777;DHT22;16677;52.224;7.484;2023-06-14T14:49:16;26.40;73.90
29777;DHT22;16677;52.224;7.484;2023-06-14T14:51:43;26.10;73.00
29777;DHT22;16677;52.224;7.484;2023-06-14T14:54:11;26.40;72.60
29777;DHT22;16677;52.224;7.484;2023-06-14T14:56:38;26.60;72.80
29777;DHT22;16677;52.224;7.484;2023-06-14T14:59:05;26.10;71.20
29777;DHT22;16677;52.224;7.484;2023-06-14T15:01:32;25.70;73.30
29777;DHT22;16677;52.224;7.484;2023-06-14T15:04:00;25.90;74.50
29777;DHT22;16677;52.224;7.484;2023-06-14T15:06:27;25.90;72.10
29777;DHT22;16677;52.224;7.484;2023-06-14T15:08:56;25.70;72.30
29777;DHT22;16677;52.224;7.484;2023-06-14T15:11:23;25.90;75.70
29777;DHT22;16677;52.224;7.484;2023-06-14T15:13:50;25.80;75.60
29777;DHT22;16677;52.224;7.484;2023-06-14T15:16:17;26.00;72.60
29777;DHT22;16677;52.224;7.484;2023-06-14T15:18:44;26.30;72.80
29777;DHT22;16677;52.224;7.484;2023-06-14T15:21:12;26.00;73.10
29777;DHT22;16677;52.224;7.484;2023-06-14T15:23:40;26.50;73.70
29777;DHT22;16677;52.224;7.484;2023-06-14T15:26:07;26.60;72.90
29777;DHT22;16677;52.224;7.484;2023-06-14T15:28:35;27.20;69.40
29777;DHT22;16677;52.224;7.484;2023-06-14T15:31:02;27.50;68.00
29777;DHT22;16677;52.224;7.484;2023-06-14T15:33:29;27.00;65.80
29777;DHT22;16677;52.224;7.484;2023-06-14T15:35:57;26.70;68.20
29777;DHT22;16677;52.224;7.484;2023-06-14T15:38:24;26.70;67.20
29777;DHT22;16677;52.224;7.484;2023-06-14T15:40:51;26.10;66.20
29777;DHT22;16677;52.224;7.484;2023-06-14T15:43:18;25.90;67.10
29777;DHT22;16677;52.224;7.484;2023-06-14T15:45:46;26.60;67.20
29777;DHT22;16677;52.224;7.484;2023-06-14T15:48:13;26.90;65.00
29777;DHT22;16677;52.224;7.484;2023-06-14T15:50:40;27.50;63.00
29777;DHT22;16677;52.224;7.484;2023-06-14T15:53:07;27.50;63.70
29777;DHT22;16677;52.224;7.484;2023-06-14T15:55:34;27.10;64.60
29777;DHT22;16677;52.224;7.484;2023-06-14T15:58:02;27.40;63.80
29777;DHT22;16677;52.224;7.484;2023-06-14T16:00:29;28.00;62.90
29777;DHT22;16677;52.224;7.484;2023-06-14T16:02:57;28.30;60.10
29777;DHT22;16677;52.224;7.484;2023-06-14T16:05:24;28.60;59.60